Time;durP1;ratioP1;P1;durP2;ratioP2;P2;SDS_P1;SDS_P2;PMS_P1;PMS_P2;Temp;Humidity;BMP_temperature;BMP_pressure;BME280_temperature;BME280_humidity;BME280_pressure;Samples;Min_cycle;Max_cycle;Signal;HPM_P1;HPM_P2
2020/12/27 00:02:14;;;;;;;5.55;3.38;;;2.50;98.90;;;;;;5013281;28;20044;-77
2020/12/27 00:04:40;;;;;;;7.75;3.47;;;2.40;99.40;;;;;;5011112;28;20077;-78
2020/12/27 00:07:09;;;;;;;7.65;3.90;;;2.40;99.40;;;;;;5012253;28;20038;-78
2020/12/27 00:09:39;;;;;;;8.35;3.55;;;2.40;99.50;;;;;;5011634;28;20038;-78
2020/12/27 00:12:06;;;;;;;8.15;4.07;;;2.60;99.00;;;;;;5005946;28;20038;-79
2020/12/27 00:14:32;;;;;;;8.13;4.28;;;2.50;99.00;;;;;;5010289;28;20045;-78
2020/12/27 00:17:06;;;;;;;7.63;3.47;;;2.40;99.10;;;;;;5014899;28;20042;-80
2020/12/27 00:19:32;;;;;;;9.40;4.07;;;2.30;99.50;;;;;;5011804;28;20034;-78
2020/12/27 00:21:57;;;;;;;6.13;3.50;;;2.30;99.60;;;;;;5007127;28;20487;-78
2020/12/27 00:24:23;;;;;;;5.80;3.40;;;2.40;99.40;;;;;;4997157;28;20046;-78
2020/12/27 00:26:49;;;;;;;6.72;3.80;;;2.20;99.40;;;;;;5013766;28;20058;-78
2020/12/27 00:29:15;;;;;;;8.05;3.60;;;2.30;99.70;;;;;;4996183;28;20488;-76
2020/12/27 00:31:40;;;;;;;8.32;3.30;;;2.40;99.50;;;;;;5011712;28;20042;-78
2020/12/27 00:34:06;;;;;;;6.95;3.65;;;2.40;99.20;;;;;;5017175;28;20140;-77
2020/12/27 00:36:32;;;;;;;7.60;3.72;;;2.30;99.30;;;;;;5009023;28;20129;-78
2020/12/27 00:38:58;;;;;;;7.75;3.38;;;2.30;99.30;;;;;;5021985;28;20041;-78
2020/12/27 00:41:25;;;;;;;10.88;3.70;;;2.30;99.30;;;;;;5007957;28;20160;-78
2020/12/27 00:43:52;;;;;;;8.30;3.75;;;2.20;99.30;;;;;;5027781;28;20124;-77
2020/12/27 00:46:18;;;;;;;7.28;3.08;;;2.20;99.50;;;;;;5010953;28;20041;-78
2020/12/27 00:48:44;;;;;;;9.95;3.83;;;2.20;99.30;;;;;;5002907;28;20033;-77
2020/12/27 00:51:10;;;;;;;9.32;3.63;;;2.20;99.30;;;;;;5007156;28;20069;-78
2020/12/27 00:53:36;;;;;;;6.82;3.03;;;2.20;99.50;;;;;;5009085;28;20038;-77
2020/12/27 00:56:02;;;;;;;6.57;3.45;;;2.20;99.30;;;;;;5007527;28;20038;-78
2020/12/27 00:58:29;;;;;;;11.10;4.55;;;2.20;99.30;;;;;;5010733;28;20072;-79
2020/12/27 01:00:56;;;;;;;6.45;3.50;;;2.30;99.50;;;;;;5009020;28;20030;-78
2020/12/27 01:03:22;;;;;;;6.38;3.17;;;2.30;99.10;;;;;;5009103;28;20030;-77
2020/12/27 01:05:48;;;;;;;8.10;3.40;;;2.30;98.90;;;;;;5010348;28;20046;-77
2020/12/27 01:08:14;;;;;;;6.30;3.38;;;2.20;98.80;;;;;;5010258;28;20111;-78
2020/12/27 01:10:39;;;;;;;7.47;3.20;;;2.20;99.10;;;;;;4992235;28;20049;-78
2020/12/27 01:13:05;;;;;;;6.93;3.22;;;2.30;99.30;;;;;;5006410;28;20041;-77
2020/12/27 01:15:31;;;;;;;6.47;3.17;;;2.30;99.20;;;;;;5008212;28;20529;-78
2020/12/27 01:17:57;;;;;;;7.03;3.05;;;2.40;98.50;;;;;;4990555;28;20077;-78
2020/12/27 01:20:23;;;;;;;7.18;3.20;;;2.30;98.70;;;;;;5005573;28;20088;-78
2020/12/27 01:22:48;;;;;;;7.13;3.65;;;2.20;99.00;;;;;;4992986;28;20492;-77
2020/12/27 01:25:15;;;;;;;7.18;3.03;;;2.20;98.80;;;;;;4990407;28;20049;-77
2020/12/27 01:27:41;;;;;;;5.55;2.92;;;2.20;99.00;;;;;;5007429;28;20026;-78
2020/12/27 01:30:07;;;;;;;7.20;2.92;;;2.20;98.80;;;;;;5007560;28;20096;-76
2020/12/27 01:32:32;;;;;;;5.82;3.13;;;2.20;98.70;;;;;;5007811;28;20038;-78
2020/12/27 01:34:58;;;;;;;5.65;3.25;;;2.20;98.30;;;;;;5013068;28;20038;-78
2020/12/27 01:37:24;;;;;;;6.40;2.30;;;2.40;98.20;;;;;;4994731;28;20554;-77
2020/12/27 01:39:50;;;;;;;6.95;2.58;;;2.30;98.10;;;;;;5012037;28;20068;-79
2020/12/27 01:42:15;;;;;;;5.43;2.42;;;2.30;97.80;;;;;;5018162;28;20045;-77
2020/12/27 01:44:41;;;;;;;6.22;2.70;;;2.30;97.90;;;;;;5009281;28;20080;-77
2020/12/27 01:47:31;;;;;;;3.78;2.20;;;2.20;98.00;;;;;;5001360;28;20137;-78
2020/12/27 01:49:58;;;;;;;4.63;2.53;;;2.20;98.10;;;;;;5005316;28;20058;-78
2020/12/27 01:52:23;;;;;;;6.63;2.80;;;2.20;98.10;;;;;;5008031;28;20044;-78
2020/12/27 01:54:50;;;;;;;6.25;2.63;;;2.20;98.40;;;;;;5004756;28;20566;-78
2020/12/27 01:57:20;;;;;;;6.32;2.83;;;2.10;98.30;;;;;;4988631;28;20518;-77
2020/12/27 01:59:46;;;;;;;6.70;2.78;;;2.10;98.10;;;;;;5005679;28;20097;-78
2020/12/27 02:02:17;;;;;;;5.55;3.13;;;2.10;98.40;;;;;;5011014;28;20041;-78
2020/12/27 02:04:43;;;;;;;6.65;2.55;;;2.00;98.40;;;;;;5011452;28;20038;-78
2020/12/27 02:07:09;;;;;;;4.82;2.70;;;1.90;98.70;;;;;;5010510;28;20518;-77
2020/12/27 02:09:39;;;;;;;7.53;2.80;;;1.90;98.90;;;;;;5006505;28;20038;-77
2020/12/27 02:12:10;;;;;;;5.70;2.92;;;2.00;98.90;;;;;;5008048;28;20041;-78
2020/12/27 02:14:36;;;;;;;6.22;2.50;;;2.00;98.70;;;;;;5007139;28;20025;-77
2020/12/27 02:17:03;;;;;;;7.70;2.60;;;2.00;98.50;;;;;;5006101;28;20041;-76
2020/12/27 02:19:30;;;;;;;3.90;2.40;;;2.00;98.50;;;;;;5006217;28;20414;-79
2020/12/27 02:21:55;;;;;;;6.20;2.65;;;2.10;98.60;;;;;;5011908;28;20095;-79
2020/12/27 02:24:22;;;;;;;4.88;2.40;;;2.10;98.30;;;;;;5008127;28;20046;-77
2020/12/27 02:26:58;;;;;;;4.55;2.30;;;2.20;98.10;;;;;;5009106;28;20037;-78
2020/12/27 02:29:25;;;;;;;4.45;2.28;;;2.10;98.00;;;;;;5009444;28;20045;-77
2020/12/27 02:31:53;;;;;;;5.25;2.38;;;2.10;98.10;;;;;;5007474;28;20040;-78
2020/12/27 02:34:19;;;;;;;5.38;2.40;;;2.20;97.90;;;;;;5006740;28;20034;-77
2020/12/27 02:36:45;;;;;;;3.70;2.40;;;2.10;98.00;;;;;;5002235;28;20038;-77
2020/12/27 02:39:11;;;;;;;6.38;2.38;;;2.20;97.80;;;;;;5008185;28;20045;-77
2020/12/27 02:41:37;;;;;;;7.47;2.40;;;2.20;97.90;;;;;;5011915;28;20068;-77
2020/12/27 02:44:03;;;;;;;5.65;2.40;;;4.30;98.10;;;;;;5015000;28;20096;-78
2020/12/27 02:46:29;;;;;;;5.72;2.47;;;2.10;97.80;;;;;;5010553;28;20061;-78
2020/12/27 02:48:54;;;;;;;5.97;2.38;;;2.10;97.70;;;;;;5010432;28;20041;-79
2020/12/27 02:51:21;;;;;;;6.00;2.33;;;2.10;97.60;;;;;;5002777;28;20042;-78
2020/12/27 02:53:48;;;;;;;5.80;2.28;;;2.20;97.40;;;;;;5007123;28;20092;-77
2020/12/27 02:56:15;;;;;;;4.68;2.10;;;2.20;97.70;;;;;;5003274;28;20128;-77
2020/12/27 02:58:41;;;;;;;3.60;2.10;;;2.20;97.60;;;;;;5006963;28;20034;-77
2020/12/27 03:01:06;;;;;;;5.75;1.95;;;2.30;97.60;;;;;;5006366;28;20028;-76
2020/12/27 03:03:32;;;;;;;3.95;2.10;;;2.40;97.00;;;;;;5013645;28;20042;-80
2020/12/27 03:05:57;;;;;;;4.45;2.10;;;2.40;97.10;;;;;;5006973;28;20066;-78
2020/12/27 03:08:23;;;;;;;3.72;2.15;;;2.40;97.20;;;;;;5007621;28;20053;-78
2020/12/27 03:10:48;;;;;;;4.93;2.05;;;2.40;97.00;;;;;;4991740;28;20033;-78
2020/12/27 03:13:14;;;;;;;3.83;2.33;;;2.40;97.10;;;;;;5002518;28;20506;-77
2020/12/27 03:15:39;;;;;;;3.72;2.10;;;2.40;96.90;;;;;;5007827;28;20077;-77
2020/12/27 03:18:05;;;;;;;4.68;2.13;;;2.40;96.90;;;;;;5008813;28;20049;-77
2020/12/27 03:20:31;;;;;;;4.10;1.98;;;2.50;96.80;;;;;;5008639;28;20034;-77
2020/12/27 03:22:56;;;;;;;5.55;2.05;;;2.50;96.90;;;;;;5007999;28;20045;-77
2020/12/27 03:25:22;;;;;;;6.35;2.22;;;2.50;96.80;;;;;;5011698;28;20275;-77
2020/12/27 03:27:47;;;;;;;4.88;2.30;;;2.40;96.80;;;;;;5009639;28;20044;-77
2020/12/27 03:30:13;;;;;;;3.85;2.08;;;2.40;97.20;;;;;;5010507;28;20034;-77
2020/12/27 03:32:39;;;;;;;3.90;2.00;;;2.40;97.00;;;;;;5013117;28;20026;-76
2020/12/27 03:35:05;;;;;;;4.25;2.20;;;2.40;97.10;;;;;;5011887;28;20049;-78
2020/12/27 03:37:35;;;;;;;7.53;2.38;;;2.40;97.00;;;;;;5012260;28;20113;-77
2020/12/27 03:40:03;;;;;;;4.13;1.95;;;2.40;97.00;;;;;;5008435;28;20030;-79
2020/12/27 03:42:28;;;;;;;5.07;2.30;;;2.40;96.90;;;;;;5011575;28;20037;-77
2020/12/27 03:44:54;;;;;;;8.38;2.38;;;2.50;97.00;;;;;;5008172;28;21142;-77
2020/12/27 03:47:20;;;;;;;9.68;2.70;;;2.40;97.00;;;;;;5012755;28;20480;-78
2020/12/27 03:49:46;;;;;;;4.72;2.33;;;2.50;96.70;;;;;;5007687;28;20037;-78
2020/12/27 03:52:11;;;;;;;4.30;2.33;;;2.50;97.00;;;;;;4993327;28;20132;-78
2020/12/27 03:54:39;;;;;;;4.65;2.47;;;2.40;97.00;;;;;;5001326;28;20046;-78
2020/12/27 03:57:05;;;;;;;5.47;2.80;;;2.40;97.10;;;;;;5013748;28;20025;-79
2020/12/27 03:59:30;;;;;;;4.22;2.50;;;2.40;97.20;;;;;;5010353;28;20320;-77
2020/12/27 04:01:56;;;;;;;6.63;2.25;;;2.40;97.40;;;;;;5009777;28;20114;-77
2020/12/27 04:04:22;;;;;;;5.82;2.40;;;2.50;97.10;;;;;;5010410;28;20092;-78
2020/12/27 04:06:48;;;;;;;5.10;2.38;;;2.50;97.30;;;;;;5011207;28;20041;-77
2020/12/27 04:09:13;;;;;;;4.20;2.70;;;2.50;97.20;;;;;;4994830;28;20038;-78
2020/12/27 04:11:39;;;;;;;5.15;2.78;;;2.40;97.40;;;;;;5009537;28;20346;-78
2020/12/27 04:14:04;;;;;;;5.68;2.90;;;2.40;97.70;;;;;;5017587;28;20109;-77
2020/12/27 04:16:30;;;;;;;5.60;2.67;;;2.40;98.00;;;;;;5009367;28;20037;-77
2020/12/27 04:18:55;;;;;;;11.20;2.70;;;2.40;98.10;;;;;;5009937;28;20187;-77
2020/12/27 04:21:21;;;;;;;4.82;2.60;;;2.50;97.90;;;;;;5011308;28;20101;-77
2020/12/27 04:23:47;;;;;;;9.98;2.70;;;2.40;98.10;;;;;;5009834;28;20038;-76
2020/12/27 04:26:21;;;;;;;5.18;3.03;;;2.40;98.20;;;;;;4993628;28;20088;-76
2020/12/27 04:28:47;;;;;;;6.10;2.58;;;2.40;98.40;;;;;;5012569;28;20042;-77
2020/12/27 04:31:21;;;;;;;3.63;2.60;;;2.40;98.60;;;;;;5010501;28;20044;-77
2020/12/27 04:33:50;;;;;;;5.60;2.60;;;2.40;98.60;;;;;;5009216;28;20096;-77
2020/12/27 04:36:16;;;;;;;6.57;2.85;;;2.50;98.40;;;;;;4991194;28;20050;-77
2020/12/27 04:38:42;;;;;;;5.35;2.90;;;2.40;98.50;;;;;;5024925;28;20562;-76
2020/12/27 04:41:11;;;;;;;6.35;3.13;;;2.40;98.60;;;;;;5007365;28;20112;-78
2020/12/27 04:43:39;;;;;;;5.05;3.13;;;2.40;98.60;;;;;;5010875;28;20034;-78
2020/12/27 04:46:07;;;;;;;5.10;2.75;;;2.50;98.20;;;;;;5014336;28;20041;-76
2020/12/27 04:48:32;;;;;;;4.85;2.90;;;2.40;98.60;;;;;;5015054;28;20538;-78
2020/12/27 04:51:06;;;;;;;4.30;2.63;;;2.40;98.60;;;;;;5011378;28;20085;-77
2020/12/27 04:53:33;;;;;;;5.80;2.63;;;2.40;98.60;;;;;;5008750;28;20045;-79
2020/12/27 04:56:01;;;;;;;6.60;3.47;;;2.40;98.50;;;;;;5005140;28;20030;-78
2020/12/27 04:58:28;;;;;;;6.80;2.88;;;2.50;98.80;;;;;;5006838;28;20543;-78
2020/12/27 05:00:54;;;;;;;5.40;2.38;;;2.40;98.70;;;;;;5003985;28;20038;-77
2020/12/27 05:03:20;;;;;;;3.70;2.65;;;2.50;98.70;;;;;;5012973;28;20483;-76
2020/12/27 05:05:48;;;;;;;4.05;2.50;;;2.50;98.50;;;;;;5008635;28;20029;-76
2020/12/27 05:08:14;;;;;;;6.15;2.70;;;2.60;98.50;;;;;;5002830;28;20093;-79
2020/12/27 05:10:42;;;;;;;6.30;3.10;;;2.50;98.50;;;;;;5007337;28;20046;-77
2020/12/27 05:13:08;;;;;;;6.75;3.38;;;2.40;98.80;;;;;;5007839;28;20065;-80
2020/12/27 05:15:36;;;;;;;5.03;2.60;;;2.40;98.60;;;;;;5007039;28;20084;-77
2020/12/27 05:18:03;;;;;;;4.65;2.80;;;2.40;98.90;;;;;;5007341;28;20391;-78
2020/12/27 05:20:28;;;;;;;6.75;2.88;;;2.50;98.70;;;;;;5003571;28;20034;-77
2020/12/27 05:23:23;;;;;;;5.85;2.80;;;2.50;98.50;;;;;;5004376;28;20030;-78
2020/12/27 05:25:49;;;;;;;6.97;2.60;;;2.40;98.80;;;;;;5006607;28;20154;-78
2020/12/27 05:28:15;;;;;;;4.07;2.65;;;2.40;98.70;;;;;;5006000;28;20526;-77
2020/12/27 05:30:44;;;;;;;6.70;3.08;;;2.40;98.70;;;;;;5007605;28;20037;-77
2020/12/27 05:33:14;;;;;;;7.80;2.80;;;2.30;98.90;;;;;;5007684;28;20044;-77
2020/12/27 05:35:40;;;;;;;5.57;2.37;;;2.30;99.10;;;;;;5003373;28;20430;-77
2020/12/27 05:38:11;;;;;;;4.18;2.50;;;2.40;99.00;;;;;;5006066;28;20045;-77
2020/12/27 05:40:39;;;;;;;4.63;2.90;;;2.50;98.90;;;;;;5004565;28;20033;-78
2020/12/27 05:43:18;;;;;;;4.18;2.70;;;2.40;99.20;;;;;;5004623;28;20116;-77
2020/12/27 05:45:45;;;;;;;5.30;2.80;;;2.40;99.30;;;;;;4992353;28;20053;-75
2020/12/27 05:48:11;;;;;;;4.70;2.60;;;2.40;99.90;;;;;;5002455;28;20038;-78
2020/12/27 05:50:42;;;;;;;3.58;2.35;;;2.50;99.90;;;;;;5005639;28;20088;-78
2020/12/27 05:53:30;;;;;;;4.65;1.63;;;2.50;99.90;;;;;;5004663;28;20129;-77
2020/12/27 05:55:59;;;;;;;5.93;2.75;;;2.70;99.30;;;;;;5020336;28;20170;-78
2020/12/27 05:58:26;;;;;;;5.88;2.50;;;2.70;99.10;;;;;;5008021;28;20526;-78
2020/12/27 06:00:57;;;;;;;7.00;3.17;;;2.60;99.40;;;;;;5008267;28;20041;-79
2020/12/27 06:03:24;;;;;;;6.80;3.08;;;2.50;99.30;;;;;;5014202;28;20045;-77
2020/12/27 06:05:55;;;;;;;4.28;2.70;;;2.40;99.80;;;;;;5004141;28;20109;-77
2020/12/27 06:08:27;;;;;;;6.93;3.53;;;2.50;99.70;;;;;;5003641;28;20026;-77
2020/12/27 06:11:00;;;;;;;5.50;2.40;;;2.40;99.90;;;;;;5023398;28;20503;-77
2020/12/27 06:13:26;;;;;;;6.10;2.90;;;2.50;99.60;;;;;;5010073;28;20392;-77
2020/12/27 06:15:59;;;;;;;6.35;2.45;;;2.50;99.60;;;;;;5005356;28;20069;-77
2020/12/27 06:18:27;;;;;;;5.00;2.50;;;2.50;99.70;;;;;;5005873;28;20042;-79
2020/12/27 06:21:10;;;;;;;5.72;3.28;;;2.50;99.70;;;;;;5003095;28;20134;-78
2020/12/27 06:23:36;;;;;;;5.82;2.40;;;2.30;99.80;;;;;;5014403;28;20049;-77
2020/12/27 06:26:04;;;;;;;6.03;2.90;;;2.30;99.90;;;;;;5012150;28;20042;-78
2020/12/27 06:28:31;;;;;;;5.03;3.08;;;2.30;99.90;;;;;;5011854;28;20050;-77
2020/12/27 06:31:02;;;;;;;9.73;2.90;;;2.40;99.90;;;;;;5006852;28;20033;-78
2020/12/27 06:33:34;;;;;;;5.05;2.60;;;2.40;99.90;;;;;;5002749;28;20062;-77
2020/12/27 06:35:59;;;;;;;3.83;1.70;;;2.50;99.90;;;;;;5023610;28;20038;-79
2020/12/27 06:38:25;;;;;;;6.07;2.85;;;2.50;99.90;;;;;;5008079;28;20412;-78
2020/12/27 06:41:04;;;;;;;5.97;2.50;;;2.50;99.90;;;;;;5003953;28;20128;-77
2020/12/27 06:43:40;;;;;;;4.93;2.13;;;2.40;99.90;;;;;;5008435;28;20626;-78
2020/12/27 06:46:28;;;;;;;6.82;2.70;;;2.40;99.90;;;;;;5024985;28;20044;-77
2020/12/27 06:49:14;;;;;;;4.43;2.42;;;2.50;99.90;;;;;;5012385;28;20049;-77
2020/12/27 06:51:45;;;;;;;4.20;2.47;;;2.50;99.90;;;;;;5007829;28;20038;-78
2020/12/27 06:54:14;;;;;;;4.82;2.45;;;2.50;99.90;;;;;;5007268;28;20103;-77
2020/12/27 06:56:42;;;;;;;5.00;2.38;;;2.50;99.90;;;;;;5007209;28;20042;-77
2020/12/27 06:59:08;;;;;;;7.13;2.25;;;2.50;99.90;;;;;;5010612;28;20045;-77
2020/12/27 07:01:34;;;;;;;6.80;2.42;;;2.50;99.90;;;;;;5008474;28;20031;-78
2020/12/27 07:04:18;;;;;;;3.00;2.05;;;2.40;99.70;;;;;;5012698;28;20065;-77
2020/12/27 07:06:45;;;;;;;5.35;2.20;;;2.60;99.70;;;;;;5009814;28;20322;-77
2020/12/27 07:09:19;;;;;;;4.88;2.20;;;2.50;99.70;;;;;;5011873;28;20430;-77
2020/12/27 07:11:45;;;;;;;4.15;2.40;;;2.60;99.80;;;;;;5014121;28;20067;-77
2020/12/27 07:14:12;;;;;;;4.72;2.28;;;2.50;99.50;;;;;;4989845;28;20472;-77
2020/12/27 07:16:42;;;;;;;4.90;2.08;;;2.60;99.60;;;;;;5013181;28;21159;-78
2020/12/27 07:19:11;;;;;;;6.13;2.10;;;2.70;99.40;;;;;;5011518;28;20037;-78
2020/12/27 07:21:37;;;;;;;3.60;2.10;;;2.70;99.10;;;;;;5008689;28;20053;-78
2020/12/27 07:24:05;;;;;;;4.47;2.33;;;2.70;99.30;;;;;;5008458;28;20035;-77
2020/12/27 07:26:32;;;;;;;5.05;2.45;;;2.70;99.10;;;;;;5021222;28;20053;-77
2020/12/27 07:29:05;;;;;;;4.50;2.30;;;2.70;99.30;;;;;;5009686;28;20120;-78
2020/12/27 07:31:34;;;;;;;2.55;1.50;;;2.70;99.30;;;;;;5010725;28;20472;-76
2020/12/27 07:34:00;;;;;;;3.08;1.88;;;2.90;98.80;;;;;;5007266;28;20100;-77
2020/12/27 07:36:26;;;;;;;6.00;1.88;;;2.90;98.60;;;;;;5009686;28;20506;-77
2020/12/27 07:38:59;;;;;;;2.42;1.25;;;2.80;98.80;;;;;;5009581;28;20076;-78
2020/12/27 07:41:29;;;;;;;5.65;2.10;;;2.90;98.60;;;;;;5008548;28;20404;-77
2020/12/27 07:43:56;;;;;;;4.68;2.30;;;2.90;98.60;;;;;;5011491;28;20054;-77
2020/12/27 07:46:22;;;;;;;3.88;1.98;;;2.80;98.90;;;;;;5015474;28;20475;-77
2020/12/27 07:48:48;;;;;;;5.00;1.90;;;2.80;99.20;;;;;;5007100;28;20373;-75
2020/12/27 07:51:19;;;;;;;4.20;1.90;;;2.80;98.80;;;;;;5006378;28;20065;-76
2020/12/27 07:53:56;;;;;;;6.60;2.45;;;2.80;98.80;;;;;;5010167;28;20042;-75
2020/12/27 07:56:23;;;;;;;5.55;1.80;;;2.90;98.60;;;;;;5011042;28;20407;-76
2020/12/27 07:58:54;;;;;;;4.68;1.73;;;2.80;99.00;;;;;;4995111;28;20042;-76
2020/12/27 08:01:25;;;;;;;3.63;1.70;;;2.90;98.80;;;;;;5009839;28;20167;-76
2020/12/27 08:03:56;;;;;;;4.53;2.00;;;3.00;98.50;;;;;;5016837;28;20042;-75
2020/12/27 08:06:22;;;;;;;5.10;2.05;;;2.90;98.50;;;;;;5008116;28;20101;-75
2020/12/27 08:08:49;;;;;;;5.00;1.95;;;2.90;98.90;;;;;;5007428;28;20061;-75
2020/12/27 08:11:19;;;;;;;5.45;2.78;;;2.90;98.70;;;;;;5007526;28;20567;-76
2020/12/27 08:14:00;;;;;;;4.17;1.87;;;2.90;98.60;;;;;;5007708;28;20026;-76
2020/12/27 08:16:26;;;;;;;3.33;1.92;;;2.90;98.80;;;;;;5009985;28;20390;-77
2020/12/27 08:19:07;;;;;;;3.75;1.80;;;2.90;98.90;;;;;;5013395;28;20038;-77
2020/12/27 08:21:34;;;;;;;3.60;1.73;;;2.90;98.70;;;;;;5008401;28;20491;-77
2020/12/27 08:24:02;;;;;;;4.38;1.75;;;3.00;98.40;;;;;;5007319;28;20033;-76
2020/12/27 08:26:29;;;;;;;4.80;1.90;;;3.10;98.10;;;;;;5010094;28;20034;-76
2020/12/27 08:29:20;;;;;;;6.05;2.10;;;3.10;98.20;;;;;;5009212;28;20110;-76
2020/12/27 08:31:47;;;;;;;4.90;1.75;;;3.10;98.40;;;;;;5013498;28;20072;-78
2020/12/27 08:34:15;;;;;;;4.30;1.50;;;3.10;98.30;;;;;;5006593;28;20403;-75
2020/12/27 08:36:52;;;;;;;3.80;1.98;;;3.10;98.00;;;;;;5010946;28;20505;-77
2020/12/27 08:39:54;;;;;;;3.58;1.67;;;3.10;97.90;;;;;;5008406;28;20038;-76
2020/12/27 08:42:20;;;;;;;3.83;1.73;;;3.30;97.90;;;;;;5007817;28;20039;-77
2020/12/27 08:44:49;;;;;;;4.18;1.70;;;3.30;97.50;;;;;;5018669;28;20392;-77
2020/12/27 08:47:33;;;;;;;4.90;1.85;;;3.10;97.80;;;;;;5009289;28;20497;-77
2020/12/27 08:50:08;;;;;;;3.63;1.83;;;3.20;97.90;;;;;;5018308;28;20034;-78
2020/12/27 08:52:34;;;;;;;3.10;1.55;;;3.20;97.70;;;;;;5000943;28;20136;-78
2020/12/27 08:55:06;;;;;;;3.90;2.03;;;3.20;97.90;;;;;;5003873;28;20622;-77
2020/12/27 08:57:32;;;;;;;2.67;1.33;;;3.20;97.80;;;;;;5001031;28;20091;-76
2020/12/27 08:59:59;;;;;;;3.15;1.33;;;3.30;97.40;;;;;;5004168;28;20455;-76
2020/12/27 09:02:24;;;;;;;2.67;1.50;;;3.40;97.20;;;;;;5021179;28;20169;-77
2020/12/27 09:05:07;;;;;;;3.35;1.50;;;3.40;97.10;;;;;;5007873;28;20129;-76
2020/12/27 09:07:44;;;;;;;2.08;1.50;;;3.40;97.30;;;;;;4984055;28;20042;-76
2020/12/27 09:10:11;;;;;;;3.80;1.70;;;3.40;97.20;;;;;;5003455;28;20061;-77
2020/12/27 09:12:38;;;;;;;4.00;1.45;;;3.50;96.90;;;;;;5002947;28;20026;-76
2020/12/27 09:15:23;;;;;;;2.83;1.25;;;3.40;97.20;;;;;;4988676;28;20470;-77
2020/12/27 09:17:58;;;;;;;2.28;1.63;;;3.40;97.10;;;;;;5000525;28;20472;-77
2020/12/27 09:20:24;;;;;;;2.88;1.60;;;3.50;97.00;;;;;;5005893;28;20100;-76
2020/12/27 09:22:51;;;;;;;3.63;1.55;;;3.50;96.80;;;;;;5005131;28;20045;-76
2020/12/27 09:25:19;;;;;;;3.83;1.60;;;3.50;97.00;;;;;;5006002;28;20038;-77
2020/12/27 09:27:46;;;;;;;4.53;1.80;;;3.50;97.20;;;;;;5003472;28;20445;-76
2020/12/27 09:30:19;;;;;;;3.88;1.55;;;3.40;97.20;;;;;;5006986;28;20415;-78
2020/12/27 09:32:45;;;;;;;2.20;1.45;;;3.40;97.30;;;;;;5023515;28;20128;-77
2020/12/27 09:35:20;;;;;;;3.17;1.50;;;3.50;97.30;;;;;;5002986;28;20053;-77
2020/12/27 09:37:46;;;;;;;6.68;1.83;;;3.60;97.00;;;;;;5004763;28;20026;-76
2020/12/27 09:40:15;;;;;;;3.35;1.50;;;3.60;97.00;;;;;;5001370;28;20064;-77
2020/12/27 09:42:40;;;;;;;1.50;0.95;;;3.80;96.60;;;;;;5003597;28;20601;-76
2020/12/27 09:45:23;;;;;;;3.50;1.40;;;3.80;96.80;;;;;;5006166;28;20034;-77
2020/12/27 09:47:57;;;;;;;2.20;1.50;;;3.70;96.60;;;;;;5006301;28;20034;-76
2020/12/27 09:50:37;;;;;;;2.70;1.40;;;3.70;96.60;;;;;;5003556;28;20033;-78
2020/12/27 09:53:04;;;;;;;3.75;1.65;;;3.70;96.90;;;;;;5007178;28;20033;-77
2020/12/27 09:55:31;;;;;;;2.45;1.40;;;3.60;97.10;;;;;;5005616;28;20035;-77
2020/12/27 09:57:57;;;;;;;3.05;1.50;;;3.50;97.50;;;;;;5005185;28;20510;-76
2020/12/27 10:00:23;;;;;;;4.10;1.67;;;3.60;97.30;;;;;;5003249;28;20562;-78
2020/12/27 10:02:49;;;;;;;2.45;1.50;;;3.60;97.40;;;;;;5004804;28;20392;-77
2020/12/27 10:05:15;;;;;;;5.90;1.83;;;3.70;97.40;;;;;;5003999;28;20041;-76
2020/12/27 10:07:42;;;;;;;2.78;1.15;;;3.70;97.00;;;;;;5004589;28;20106;-76
2020/12/27 10:10:10;;;;;;;2.13;1.25;;;3.90;96.60;;;;;;5004911;28;20050;-75
2020/12/27 10:12:36;;;;;;;3.08;1.70;;;3.80;96.70;;;;;;5008510;28;20117;-78
2020/12/27 10:15:03;;;;;;;3.40;1.42;;;3.70;97.00;;;;;;5003390;28;20488;-77
2020/12/27 10:17:29;;;;;;;5.00;1.45;;;3.70;97.20;;;;;;5004850;28;20033;-78
2020/12/27 10:19:54;;;;;;;3.80;1.38;;;3.70;97.10;;;;;;5009318;28;20117;-77
2020/12/27 10:22:20;;;;;;;2.67;1.20;;;3.70;97.10;;;;;;5013357;28;20129;-78
2020/12/27 10:24:46;;;;;;;4.60;1.45;;;3.70;97.40;;;;;;5025568;28;20488;-78
2020/12/27 10:27:12;;;;;;;2.67;1.48;;;3.80;97.20;;;;;;5009297;28;20028;-80
2020/12/27 10:29:37;;;;;;;3.90;1.30;;;3.70;97.30;;;;;;5006441;28;20435;-77
2020/12/27 10:32:05;;;;;;;2.85;1.30;;;3.80;97.40;;;;;;5023204;28;20492;-77
2020/12/27 10:34:32;;;;;;;3.10;1.38;;;3.90;96.80;;;;;;5010590;28;20499;-77
2020/12/27 10:36:59;;;;;;;3.42;1.50;;;3.90;97.00;;;;;;5018950;28;20511;-77
2020/12/27 10:39:25;;;;;;;2.47;1.17;;;4.00;96.80;;;;;;5012138;28;20065;-77
2020/12/27 10:41:53;;;;;;;2.03;1.15;;;4.00;97.00;;;;;;5008883;28;20056;-76
2020/12/27 10:44:19;;;;;;;2.53;1.30;;;4.10;96.40;;;;;;5007442;28;20455;-79
2020/12/27 10:46:45;;;;;;;2.53;1.25;;;4.10;96.50;;;;;;5011946;28;20472;-78
2020/12/27 10:49:11;;;;;;;3.17;1.30;;;4.10;96.80;;;;;;5011155;28;20065;-76
2020/12/27 10:51:38;;;;;;;4.65;1.35;;;4.10;96.80;;;;;;5004360;28;20050;-77
2020/12/27 10:54:05;;;;;;;4.13;1.50;;;4.10;96.80;;;;;;5012868;28;20053;-77
2020/12/27 10:56:32;;;;;;;2.67;1.20;;;4.20;96.70;;;;;;5012220;28;20042;-77
2020/12/27 10:58:58;;;;;;;2.85;1.10;;;4.30;96.80;;;;;;5007718;28;20041;-77
2020/12/27 11:01:24;;;;;;;2.70;1.30;;;4.20;96.90;;;;;;5008734;28;20076;-77
2020/12/27 11:03:50;;;;;;;2.38;1.30;;;4.20;96.90;;;;;;5008093;28;20042;-78
2020/12/27 11:06:16;;;;;;;0.98;0.70;;;4.20;97.20;;;;;;5011619;28;20038;-78
2020/12/27 11:08:42;;;;;;;2.75;1.13;;;4.20;97.20;;;;;;4997285;28;20687;-77
2020/12/27 11:11:08;;;;;;;2.83;1.25;;;4.20;97.40;;;;;;5007962;28;20053;-77
2020/12/27 11:13:34;;;;;;;3.47;1.65;;;4.20;97.50;;;;;;5008547;28;20056;-78
2020/12/27 11:15:59;;;;;;;2.13;1.10;;;4.20;97.50;;;;;;4993590;28;20045;-77
2020/12/27 11:18:25;;;;;;;2.38;1.13;;;4.30;97.50;;;;;;5009057;28;20046;-77
2020/12/27 11:20:51;;;;;;;2.25;1.00;;;4.50;97.00;;;;;;5001803;28;20029;-77
2020/12/27 11:23:16;;;;;;;3.70;1.40;;;4.50;97.20;;;;;;5004085;28;20045;-78
2020/12/27 11:25:42;;;;;;;3.42;1.42;;;4.40;97.40;;;;;;5004032;28;20403;-77
2020/12/27 11:28:07;;;;;;;4.78;1.55;;;4.40;97.50;;;;;;5010628;28;20050;-77
2020/12/27 11:30:33;;;;;;;3.97;1.25;;;4.50;97.40;;;;;;5006446;28;20053;-76
2020/12/27 11:32:58;;;;;;;2.58;1.10;;;4.50;97.60;;;;;;5019139;28;20045;-76
2020/12/27 11:35:24;;;;;;;0.88;0.77;;;4.60;97.40;;;;;;5004592;28;20076;-77
2020/12/27 11:37:51;;;;;;;3.80;1.25;;;4.60;97.40;;;;;;5011459;28;20050;-76
2020/12/27 11:40:16;;;;;;;2.35;1.13;;;4.60;97.40;;;;;;5011220;28;20102;-77
2020/12/27 11:42:42;;;;;;;2.15;1.10;;;4.60;97.50;;;;;;5012246;28;20053;-77
2020/12/27 11:45:08;;;;;;;2.10;1.08;;;4.70;97.40;;;;;;5012138;28;20045;-77
2020/12/27 11:47:35;;;;;;;2.05;0.98;;;4.70;97.20;;;;;;5004821;28;20026;-77
2020/12/27 11:50:01;;;;;;;2.13;1.08;;;4.80;97.00;;;;;;5009105;28;20038;-78
2020/12/27 11:52:27;;;;;;;1.55;1.08;;;4.80;97.10;;;;;;4998456;28;20045;-76
2020/12/27 11:54:53;;;;;;;2.00;1.00;;;4.70;97.20;;;;;;5008234;28;20120;-78
2020/12/27 11:57:18;;;;;;;4.85;1.10;;;4.80;97.30;;;;;;5012556;28;20099;-76
2020/12/27 11:59:45;;;;;;;3.22;1.20;;;4.70;97.10;;;;;;5012175;28;20088;-76
2020/12/27 12:02:10;;;;;;;2.22;0.95;;;4.80;97.20;;;;;;5011818;28;20046;-78
2020/12/27 12:04:36;;;;;;;3.45;1.00;;;4.80;97.20;;;;;;5008157;28;20116;-78
2020/12/27 12:07:02;;;;;;;5.07;1.20;;;4.90;97.30;;;;;;5021972;28;20037;-78
2020/12/27 12:09:28;;;;;;;1.83;1.10;;;4.90;97.20;;;;;;5012420;28;20050;-77
2020/12/27 12:11:53;;;;;;;1.25;0.82;;;5.00;96.90;;;;;;5004675;28;20053;-76
2020/12/27 12:14:19;;;;;;;2.17;1.10;;;5.00;96.70;;;;;;5007861;28;20100;-78
2020/12/27 12:16:45;;;;;;;2.20;1.00;;;5.00;96.80;;;;;;5009232;28;20141;-78
2020/12/27 12:19:11;;;;;;;0.85;0.70;;;5.00;96.80;;;;;;5006705;28;20050;-77
2020/12/27 12:21:37;;;;;;;1.20;0.70;;;5.10;96.50;;;;;;5021647;28;20046;-79
2020/12/27 12:24:02;;;;;;;2.88;1.10;;;5.20;96.30;;;;;;5009832;28;20057;-79
2020/12/27 12:26:29;;;;;;;1.50;0.90;;;5.20;96.20;;;;;;5009113;28;20385;-78
2020/12/27 12:28:57;;;;;;;1.58;0.90;;;5.20;96.20;;;;;;4986014;28;20041;-78
2020/12/27 12:31:23;;;;;;;1.50;1.10;;;5.20;96.20;;;;;;5006319;28;20253;-79
2020/12/27 12:33:49;;;;;;;3.15;0.90;;;5.30;95.90;;;;;;4996828;28;20054;-79
2020/12/27 12:36:19;;;;;;;1.95;0.90;;;5.30;95.90;;;;;;5002860;28;20483;-76
2020/12/27 12:38:46;;;;;;;1.67;0.90;;;5.40;95.50;;;;;;5022728;28;20419;-79
2020/12/27 12:41:12;;;;;;;1.77;1.08;;;5.50;95.40;;;;;;5010211;28;20522;-78
2020/12/27 12:43:42;;;;;;;0.75;0.70;;;5.50;95.30;;;;;;5010752;28;20029;-77
2020/12/27 12:46:10;;;;;;;2.20;1.05;;;5.50;95.00;;;;;;5008929;28;20042;-77
2020/12/27 12:48:36;;;;;;;2.08;1.10;;;5.50;95.00;;;;;;4991788;28;20066;-77
2020/12/27 12:51:03;;;;;;;4.25;0.80;;;5.60;95.00;;;;;;4997552;28;20049;-77
2020/12/27 12:53:29;;;;;;;2.22;0.90;;;5.60;94.60;;;;;;5001803;28;20038;-77
2020/12/27 12:55:55;;;;;;;1.45;0.88;;;5.60;94.60;;;;;;5001901;28;20037;-78
2020/12/27 12:58:20;;;;;;;1.92;1.00;;;5.60;94.30;;;;;;5002368;28;20053;-78
2020/12/27 13:00:46;;;;;;;1.17;0.80;;;5.60;94.40;;;;;;5010684;28;20025;-79
2020/12/27 13:03:12;;;;;;;2.58;0.88;;;5.70;94.20;;;;;;5008244;28;20048;-76